sensor_id;sensor_type;location;lat;lon;timestamp;temperature;humidity
7163;DHT22;3623;47.098;15.446;2023-02-15T00:01:29;2.00;99.90
7163;DHT22;3623;47.098;15.446;2023-02-15T00:03:56;2.00;99.90
7163;DHT22;3623;47.098;15.446;2023-02-15T00:06:23;2.10;99.90
7163;DHT22;3623;47.098;15.446;2023-02-15T00:08:51;2.20;99.90
7163;DHT22;3623;47.098;15.446;2023-02-15T00:11:18;1.80;99.90
7163;DHT22;3623;47.098;15.446;2023-02-15T00:14:08;2.10;99.90
7163;DHT22;3623;47.098;15.446;2023-02-15T00:16:36;2.20;99.90
7163;DHT22;3623;47.098;15.446;2023-02-15T00:19:04;2.20;99.90
7163;DHT22;3623;47.098;15.446;2023-02-15T00:21:32;2.20;99.90
7163;DHT22;3623;47.098;15.446;2023-02-15T00:24:00;2.20;99.90
7163;DHT22;3623;47.098;15.446;2023-02-15T00:26:28;2.20;99.90
7163;DHT22;3623;47.098;15.446;2023-02-15T00:28:56;2.30;99.90
7163;DHT22;3623;47.098;15.446;2023-02-15T00:31:26;2.50;99.90
7163;DHT22;3623;47.098;15.446;2023-02-15T00:33:53;2.50;99.90
7163;DHT22;3623;47.098;15.446;2023-02-15T00:36:20;2.50;99.90
7163;DHT22;3623;47.098;15.446;2023-02-15T00:38:47;2.60;99.90
7163;DHT22;3623;47.098;15.446;2023-02-15T00:41:15;2.60;99.90
7163;DHT22;3623;47.098;15.446;2023-02-15T00:43:42;2.60;99.90
7163;DHT22;3623;47.098;15.446;2023-02-15T00:46:09;3.80;99.90
7163;DHT22;3623;47.098;15.446;2023-02-15T00:48:37;2.60;99.90
7163;DHT22;3623;47.098;15.446;2023-02-15T00:51:04;2.70;99.90
7163;DHT22;3623;47.098;15.446;2023-02-15T00:53:31;2.60;99.90
7163;DHT22;3623;47.098;15.446;2023-02-15T00:55:59;2.70;99.90
7163;DHT22;3623;47.098;15.446;2023-02-15T00:58:26;2.50;99.90
7163;DHT22;3623;47.098;15.446;2023-02-15T01:00:53;2.40;99.90
7163;DHT22;3623;47.098;15.446;2023-02-15T01:03:21;2.50;99.90
7163;DHT22;3623;47.098;15.446;2023-02-15T01:05:49;2.40;99.90
7163;DHT22;3623;47.098;15.446;2023-02-15T01:08:16;2.00;99.90
7163;DHT22;3623;47.098;15.446;2023-02-15T01:10:43;2.40;99.90
7163;DHT22;3623;47.098;15.446;2023-02-15T01:13:14;2.40;99.90
7163;DHT22;3623;47.098;15.446;2023-02-15T01:15:41;2.30;99.90
7163;DHT22;3623;47.098;15.446;2023-02-15T01:18:09;2.30;99.90
7163;DHT22;3623;47.098;15.446;2023-02-15T01:20:38;2.20;99.90
7163;DHT22;3623;47.098;15.446;2023-02-15T01:23:08;2.20;99.90
7163;DHT22;3623;47.098;15.446;2023-02-15T01:25:36;2.10;99.90
7163;DHT22;3623;47.098;15.446;2023-02-15T01:28:03;2.10;99.90
7163;DHT22;3623;47.098;15.446;2023-02-15T01:30:31;2.00;99.90
7163;DHT22;3623;47.098;15.446;2023-02-15T01:32:58;2.10;99.90
7163;DHT22;3623;47.098;15.446;2023-02-15T01:35:26;3.30;99.90
7163;DHT22;3623;47.098;15.446;2023-02-15T01:37:54;2.20;99.90
7163;DHT22;3623;47.098;15.446;2023-02-15T01:40:23;2.20;99.90
7163;DHT22;3623;47.098;15.446;2023-02-15T01:42:51;2.20;99.90
7163;DHT22;3623;47.098;15.446;2023-02-15T01:45:22;2.20;99.90
7163;DHT22;3623;47.098;15.446;2023-02-15T01:47:54;2.10;99.90
7163;DHT22;3623;47.098;15.446;2023-02-15T01:50:26;2.00;99.90
7163;DHT22;3623;47.098;15.446;2023-02-15T01:52:58;2.00;99.90
7163;DHT22;3623;47.098;15.446;2023-02-15T01:55:29;2.10;99.90
7163;DHT22;3623;47.098;15.446;2023-02-15T01:57:57;2.00;99.90
7163;DHT22;3623;47.098;15.446;2023-02-15T02:00:25;2.00;99.90
7163;DHT22;3623;47.098;15.446;2023-02-15T02:02:54;2.00;99.90
7163;DHT22;3623;47.098;15.446;2023-02-15T02:05:22;1.90;99.90
7163;DHT22;3623;47.098;15.446;2023-02-15T02:07:52;1.80;99.90
7163;DHT22;3623;47.098;15.446;2023-02-15T02:10:23;1.80;99.90
7163;DHT22;3623;47.098;15.446;2023-02-15T02:12:54;1.80;99.90
7163;DHT22;3623;47.098;15.446;2023-02-15T02:15:27;1.80;99.90
7163;DHT22;3623;47.098;15.446;2023-02-15T02:18:06;1.70;99.90
7163;DHT22;3623;47.098;15.446;2023-02-15T02:21:11;1.80;99.90
7163;DHT22;3623;47.098;15.446;2023-02-15T02:23:51;1.90;99.90
7163;DHT22;3623;47.098;15.446;2023-02-15T02:27:00;1.80;99.90
7163;DHT22;3623;47.098;15.446;2023-02-15T02:29:49;1.90;99.90
7163;DHT22;3623;47.098;15.446;2023-02-15T02:35:17;2.00;99.90
7163;DHT22;3623;47.098;15.446;2023-02-15T02:37:50;1.90;99.90
7163;DHT22;3623;47.098;15.446;2023-02-15T02:40:25;1.90;99.90
7163;DHT22;3623;47.098;15.446;2023-02-15T02:42:59;2.00;99.90
7163;DHT22;3623;47.098;15.446;2023-02-15T02:45:33;2.00;99.90
7163;DHT22;3623;47.098;15.446;2023-02-15T02:48:07;1.90;99.90
7163;DHT22;3623;47.098;15.446;2023-02-15T02:50:39;1.90;99.90
7163;DHT22;3623;47.098;15.446;2023-02-15T02:53:07;2.00;99.90
7163;DHT22;3623;47.098;15.446;2023-02-15T02:55:38;1.90;99.90
7163;DHT22;3623;47.098;15.446;2023-02-15T02:58:09;1.80;99.90
7163;DHT22;3623;47.098;15.446;2023-02-15T03:00:40;1.80;99.90
7163;DHT22;3623;47.098;15.446;2023-02-15T03:03:12;1.70;99.90
7163;DHT22;3623;47.098;15.446;2023-02-15T03:05:44;1.70;99.90
7163;DHT22;3623;47.098;15.446;2023-02-15T03:08:14;1.60;99.90
7163;DHT22;3623;47.098;15.446;2023-02-15T03:10:48;1.60;99.90
7163;DHT22;3623;47.098;15.446;2023-02-15T03:13:16;1.70;99.90
7163;DHT22;3623;47.098;15.446;2023-02-15T03:15:44;1.70;99.90
7163;DHT22;3623;47.098;15.446;2023-02-15T03:18:33;1.70;99.90
7163;DHT22;3623;47.098;15.446;2023-02-15T03:21:04;1.70;99.90
7163;DHT22;3623;47.098;15.446;2023-02-15T03:23:32;1.60;99.90
7163;DHT22;3623;47.098;15.446;2023-02-15T03:26:04;1.70;99.90
7163;DHT22;3623;47.098;15.446;2023-02-15T03:28:36;1.80;99.90
7163;DHT22;3623;47.098;15.446;2023-02-15T03:31:06;1.80;99.90
7163;DHT22;3623;47.098;15.446;2023-02-15T03:33:35;1.80;99.90
7163;DHT22;3623;47.098;15.446;2023-02-15T03:36:10;1.80;99.90
7163;DHT22;3623;47.098;15.446;2023-02-15T03:38:44;1.80;99.90
7163;DHT22;3623;47.098;15.446;2023-02-15T03:41:15;1.90;99.90
7163;DHT22;3623;47.098;15.446;2023-02-15T03:43:48;1.80;99.90
7163;DHT22;3623;47.098;15.446;2023-02-15T03:46:21;1.80;99.90
7163;DHT22;3623;47.098;15.446;2023-02-15T03:48:53;1.90;99.90
7163;DHT22;3623;47.098;15.446;2023-02-15T03:51:26;1.80;99.90
7163;DHT22;3623;47.098;15.446;2023-02-15T03:54:02;1.70;99.90
7163;DHT22;3623;47.098;15.446;2023-02-15T03:56:30;1.70;99.90
7163;DHT22;3623;47.098;15.446;2023-02-15T03:58:58;1.80;99.90
7163;DHT22;3623;47.098;15.446;2023-02-15T04:01:48;1.80;99.90
7163;DHT22;3623;47.098;15.446;2023-02-15T04:04:32;1.80;99.90
7163;DHT22;3623;47.098;15.446;2023-02-15T04:07:01;1.90;99.90
7163;DHT22;3623;47.098;15.446;2023-02-15T04:09:29;1.80;99.90
7163;DHT22;3623;47.098;15.446;2023-02-15T04:12:13;1.80;99.90
7163;DHT22;3623;47.098;15.446;2023-02-15T04:14:40;1.70;99.90
7163;DHT22;3623;47.098;15.446;2023-02-15T04:17:24;1.70;99.90
7163;DHT22;3623;47.098;15.446;2023-02-15T04:19:51;1.80;99.90
7163;DHT22;3623;47.098;15.446;2023-02-15T04:22:37;1.80;99.90
7163;DHT22;3623;47.098;15.446;2023-02-15T04:25:22;1.80;99.90
7163;DHT22;3623;47.098;15.446;2023-02-15T04:27:50;1.90;99.90
7163;DHT22;3623;47.098;15.446;2023-02-15T04:30:19;1.90;99.90
7163;DHT22;3623;47.098;15.446;2023-02-15T04:32:47;1.80;99.90
7163;DHT22;3623;47.098;15.446;2023-02-15T04:35:14;1.80;99.90
7163;DHT22;3623;47.098;15.446;2023-02-15T04:37:43;1.80;99.90
7163;DHT22;3623;47.098;15.446;2023-02-15T04:40:15;1.80;99.90
7163;DHT22;3623;47.098;15.446;2023-02-15T04:42:42;1.80;99.90
7163;DHT22;3623;47.098;15.446;2023-02-15T04:45:09;1.80;99.90
7163;DHT22;3623;47.098;15.446;2023-02-15T04:47:36;1.80;99.90
7163;DHT22;3623;47.098;15.446;2023-02-15T04:50:04;1.80;99.90
7163;DHT22;3623;47.098;15.446;2023-02-15T04:52:31;1.80;99.90
7163;DHT22;3623;47.098;15.446;2023-02-15T04:55:00;1.90;99.90
7163;DHT22;3623;47.098;15.446;2023-02-15T04:57:27;1.70;99.90
7163;DHT22;3623;47.098;15.446;2023-02-15T04:59:54;1.70;99.90
7163;DHT22;3623;47.098;15.446;2023-02-15T05:02:21;1.70;99.90
7163;DHT22;3623;47.098;15.446;2023-02-15T05:04:48;1.70;99.90
7163;DHT22;3623;47.098;15.446;2023-02-15T05:07:15;1.70;99.90
7163;DHT22;3623;47.098;15.446;2023-02-15T05:09:43;1.70;99.90
7163;DHT22;3623;47.098;15.446;2023-02-15T05:12:11;1.70;99.90
7163;DHT22;3623;47.098;15.446;2023-02-15T05:14:38;1.70;99.90
7163;DHT22;3623;47.098;15.446;2023-02-15T05:17:05;1.70;99.90
7163;DHT22;3623;47.098;15.446;2023-02-15T05:19:32;1.60;99.90
7163;DHT22;3623;47.098;15.446;2023-02-15T05:21:59;1.70;99.90
7163;DHT22;3623;47.098;15.446;2023-02-15T05:24:27;1.70;99.90
7163;DHT22;3623;47.098;15.446;2023-02-15T05:27:12;1.70;99.90
7163;DHT22;3623;47.098;15.446;2023-02-15T05:29:56;1.90;99.90
7163;DHT22;3623;47.098;15.446;2023-02-15T05:32:23;1.60;99.90
7163;DHT22;3623;47.098;15.446;2023-02-15T05:34:51;1.70;99.90
7163;DHT22;3623;47.098;15.446;2023-02-15T05:37:18;1.40;99.90
7163;DHT22;3623;47.098;15.446;2023-02-15T05:39:45;1.50;99.90
7163;DHT22;3623;47.098;15.446;2023-02-15T05:42:13;1.50;99.90
7163;DHT22;3623;47.098;15.446;2023-02-15T05:44:40;1.60;99.90
7163;DHT22;3623;47.098;15.446;2023-02-15T05:47:07;1.50;99.90
7163;DHT22;3623;47.098;15.446;2023-02-15T05:49:34;1.50;99.90
7163;DHT22;3623;47.098;15.446;2023-02-15T05:52:02;1.50;99.90
7163;DHT22;3623;47.098;15.446;2023-02-15T05:54:29;1.40;99.90
7163;DHT22;3623;47.098;15.446;2023-02-15T05:56:56;1.50;99.90
7163;DHT22;3623;47.098;15.446;2023-02-15T05:59:25;1.60;99.90
7163;DHT22;3623;47.098;15.446;2023-02-15T06:01:52;1.50;99.90
7163;DHT22;3623;47.098;15.446;2023-02-15T06:04:19;1.40;99.90
7163;DHT22;3623;47.098;15.446;2023-02-15T06:06:46;1.40;99.90
7163;DHT22;3623;47.098;15.446;2023-02-15T06:09:14;1.30;99.90
7163;DHT22;3623;47.098;15.446;2023-02-15T06:11:43;1.30;99.90
7163;DHT22;3623;47.098;15.446;2023-02-15T06:14:11;1.30;99.90
7163;DHT22;3623;47.098;15.446;2023-02-15T06:16:39;1.40;99.90
7163;DHT22;3623;47.098;15.446;2023-02-15T06:19:06;1.30;99.90
7163;DHT22;3623;47.098;15.446;2023-02-15T06:21:33;1.40;99.90
7163;DHT22;3623;47.098;15.446;2023-02-15T06:24:00;1.40;99.90
7163;DHT22;3623;47.098;15.446;2023-02-15T06:26:27;1.40;99.90
7163;DHT22;3623;47.098;15.446;2023-02-15T06:28:54;1.40;99.90
7163;DHT22;3623;47.098;15.446;2023-02-15T06:31:22;1.40;99.90
7163;DHT22;3623;47.098;15.446;2023-02-15T06:33:50;1.40;99.90
7163;DHT22;3623;47.098;15.446;2023-02-15T06:36:17;1.40;99.90
7163;DHT22;3623;47.098;15.446;2023-02-15T06:38:44;1.50;99.90
7163;DHT22;3623;47.098;15.446;2023-02-15T06:41:11;1.40;99.90
7163;DHT22;3623;47.098;15.446;2023-02-15T06:43:38;2.00;99.90
7163;DHT22;3623;47.098;15.446;2023-02-15T06:46:05;1.40;99.90
7163;DHT22;3623;47.098;15.446;2023-02-15T06:48:32;1.50;99.90
7163;DHT22;3623;47.098;15.446;2023-02-15T06:51:01;1.40;99.90
7163;DHT22;3623;47.098;15.446;2023-02-15T06:53:28;1.40;99.90
7163;DHT22;3623;47.098;15.446;2023-02-15T06:56:00;1.60;99.90
7163;DHT22;3623;47.098;15.446;2023-02-15T06:58:28;1.50;99.90
7163;DHT22;3623;47.098;15.446;2023-02-15T07:00:55;1.60;99.90
7163;DHT22;3623;47.098;15.446;2023-02-15T07:03:22;1.50;99.90
7163;DHT22;3623;47.098;15.446;2023-02-15T07:05:54;1.70;99.90
7163;DHT22;3623;47.098;15.446;2023-02-15T07:08:22;1.40;99.90
7163;DHT22;3623;47.098;15.446;2023-02-15T07:10:50;1.70;99.90
7163;DHT22;3623;47.098;15.446;2023-02-15T07:13:17;1.50;99.90
7163;DHT22;3623;47.098;15.446;2023-02-15T07:15:44;1.70;99.90
7163;DHT22;3623;47.098;15.446;2023-02-15T07:18:11;1.60;99.90
7163;DHT22;3623;47.098;15.446;2023-02-15T07:20:38;1.80;99.90
7163;DHT22;3623;47.098;15.446;2023-02-15T07:23:07;1.80;99.90
7163;DHT22;3623;47.098;15.446;2023-02-15T07:25:36;1.80;99.90
7163;DHT22;3623;47.098;15.446;2023-02-15T07:28:04;1.70;99.90
7163;DHT22;3623;47.098;15.446;2023-02-15T07:30:31;1.80;99.90
7163;DHT22;3623;47.098;15.446;2023-02-15T07:32:58;2.20;99.90
7163;DHT22;3623;47.098;15.446;2023-02-15T07:35:47;1.90;99.90
7163;DHT22;3623;47.098;15.446;2023-02-15T07:38:14;1.90;99.90
7163;DHT22;3623;47.098;15.446;2023-02-15T07:40:43;1.80;99.90
7163;DHT22;3623;47.098;15.446;2023-02-15T07:43:10;1.90;99.90
7163;DHT22;3623;47.098;15.446;2023-02-15T07:45:38;1.90;99.90
7163;DHT22;3623;47.098;15.446;2023-02-15T07:48:06;2.00;99.90
7163;DHT22;3623;47.098;15.446;2023-02-15T07:50:33;2.00;99.90
7163;DHT22;3623;47.098;15.446;2023-02-15T07:53:01;2.20;99.90
7163;DHT22;3623;47.098;15.446;2023-02-15T07:55:28;2.50;99.90
7163;DHT22;3623;47.098;15.446;2023-02-15T07:57:57;2.20;99.90
7163;DHT22;3623;47.098;15.446;2023-02-15T08:00:24;2.10;99.90
7163;DHT22;3623;47.098;15.446;2023-02-15T08:02:53;2.30;99.90
7163;DHT22;3623;47.098;15.446;2023-02-15T08:05:34;2.10;99.90
7163;DHT22;3623;47.098;15.446;2023-02-15T08:08:01;2.10;99.90
7163;DHT22;3623;47.098;15.446;2023-02-15T08:10:28;1.60;99.90
7163;DHT22;3623;47.098;15.446;2023-02-15T08:13:11;2.20;99.90
7163;DHT22;3623;47.098;15.446;2023-02-15T08:15:38;2.30;99.90
7163;DHT22;3623;47.098;15.446;2023-02-15T08:18:05;2.10;99.90
7163;DHT22;3623;47.098;15.446;2023-02-15T08:20:32;2.10;99.90
7163;DHT22;3623;47.098;15.446;2023-02-15T08:22:59;2.10;99.90
7163;DHT22;3623;47.098;15.446;2023-02-15T08:25:26;2.10;99.90
7163;DHT22;3623;47.098;15.446;2023-02-15T08:27:53;2.50;99.90
7163;DHT22;3623;47.098;15.446;2023-02-15T08:30:22;2.20;99.90
7163;DHT22;3623;47.098;15.446;2023-02-15T08:32:49;2.30;99.90
7163;DHT22;3623;47.098;15.446;2023-02-15T08:35:16;2.20;99.90
7163;DHT22;3623;47.098;15.446;2023-02-15T08:37:43;2.20;99.90
7163;DHT22;3623;47.098;15.446;2023-02-15T08:40:11;2.30;99.90
7163;DHT22;3623;47.098;15.446;2023-02-15T08:42:40;2.40;99.90
7163;DHT22;3623;47.098;15.446;2023-02-15T08:45:08;2.40;99.90
7163;DHT22;3623;47.098;15.446;2023-02-15T08:47:36;2.50;99.90
7163;DHT22;3623;47.098;15.446;2023-02-15T08:50:04;3.30;99.90
7163;DHT22;3623;47.098;15.446;2023-02-15T08:52:32;2.60;99.90
7163;DHT22;3623;47.098;15.446;2023-02-15T08:54:59;2.80;99.90
7163;DHT22;3623;47.098;15.446;2023-02-15T08:57:27;3.20;99.90
7163;DHT22;3623;47.098;15.446;2023-02-15T08:59:55;3.10;99.90
7163;DHT22;3623;47.098;15.446;2023-02-15T09:02:22;3.00;99.90
7163;DHT22;3623;47.098;15.446;2023-02-15T09:04:51;3.10;99.90
7163;DHT22;3623;47.098;15.446;2023-02-15T09:07:18;2.90;99.90
7163;DHT22;3623;47.098;15.446;2023-02-15T09:09:45;2.90;99.90
7163;DHT22;3623;47.098;15.446;2023-02-15T09:12:12;3.10;99.90
7163;DHT22;3623;47.098;15.446;2023-02-15T09:14:40;2.90;99.90
7163;DHT22;3623;47.098;15.446;2023-02-15T09:17:07;2.80;99.90
7163;DHT22;3623;47.098;15.446;2023-02-15T09:19:34;2.90;99.90
7163;DHT22;3623;47.098;15.446;2023-02-15T09:22:02;2.90;99.90
7163;DHT22;3623;47.098;15.446;2023-02-15T09:24:32;3.10;99.90
7163;DHT22;3623;47.098;15.446;2023-02-15T09:26:59;3.10;99.90
7163;DHT22;3623;47.098;15.446;2023-02-15T09:29:26;3.20;99.90
7163;DHT22;3623;47.098;15.446;2023-02-15T09:31:54;3.40;99.90
7163;DHT22;3623;47.098;15.446;2023-02-15T09:34:22;3.50;99.90
7163;DHT22;3623;47.098;15.446;2023-02-15T09:36:50;3.60;99.90
7163;DHT22;3623;47.098;15.446;2023-02-15T09:39:20;3.50;99.90
7163;DHT22;3623;47.098;15.446;2023-02-15T09:42:04;3.60;99.90
7163;DHT22;3623;47.098;15.446;2023-02-15T09:44:50;3.70;99.90
7163;DHT22;3623;47.098;15.446;2023-02-15T09:47:42;3.80;99.90
7163;DHT22;3623;47.098;15.446;2023-02-15T09:50:16;4.00;99.90
7163;DHT22;3623;47.098;15.446;2023-02-15T09:53:04;4.00;99.90
7163;DHT22;3623;47.098;15.446;2023-02-15T09:55:48;4.30;99.90
7163;DHT22;3623;47.098;15.446;2023-02-15T09:58:22;4.50;99.90
7163;DHT22;3623;47.098;15.446;2023-02-15T10:00:57;4.50;99.90
7163;DHT22;3623;47.098;15.446;2023-02-15T10:03:37;5.00;99.90
7163;DHT22;3623;47.098;15.446;2023-02-15T10:06:26;4.90;99.90
7163;DHT22;3623;47.098;15.446;2023-02-15T10:09:03;5.40;99.90
7163;DHT22;3623;47.098;15.446;2023-02-15T10:11:49;5.60;99.90
7163;DHT22;3623;47.098;15.446;2023-02-15T10:14:52;5.60;99.90
7163;DHT22;3623;47.098;15.446;2023-02-15T10:17:37;6.10;99.90
7163;DHT22;3623;47.098;15.446;2023-02-15T10:20:14;5.90;99.90
7163;DHT22;3623;47.098;15.446;2023-02-15T10:22:52;6.20;99.90
7163;DHT22;3623;47.098;15.446;2023-02-15T10:25:31;6.70;99.90
7163;DHT22;3623;47.098;15.446;2023-02-15T10:28:05;7.20;99.90
7163;DHT22;3623;47.098;15.446;2023-02-15T10:30:39;7.20;99.90
7163;DHT22;3623;47.098;15.446;2023-02-15T10:33:18;6.80;99.90
7163;DHT22;3623;47.098;15.446;2023-02-15T10:36:01;6.40;99.90
7163;DHT22;3623;47.098;15.446;2023-02-15T10:38:34;6.40;99.90
7163;DHT22;3623;47.098;15.446;2023-02-15T10:41:10;6.20;99.90
7163;DHT22;3623;47.098;15.446;2023-02-15T10:43:54;6.20;99.90
7163;DHT22;3623;47.098;15.446;2023-02-15T10:46:35;5.90;99.90
7163;DHT22;3623;47.098;15.446;2023-02-15T10:49:22;6.30;99.90
7163;DHT22;3623;47.098;15.446;2023-02-15T10:52:03;6.80;99.90
7163;DHT22;3623;47.098;15.446;2023-02-15T10:54:37;6.30;99.90
7163;DHT22;3623;47.098;15.446;2023-02-15T10:57:18;6.20;99.90
7163;DHT22;3623;47.098;15.446;2023-02-15T11:00:01;6.50;99.90
7163;DHT22;3623;47.098;15.446;2023-02-15T11:02:47;6.50;99.90
7163;DHT22;3623;47.098;15.446;2023-02-15T11:05:24;6.70;99.90
7163;DHT22;3623;47.098;15.446;2023-02-15T11:07:56;6.90;99.90
7163;DHT22;3623;47.098;15.446;2023-02-15T11:10:29;7.40;99.90
7163;DHT22;3623;47.098;15.446;2023-02-15T11:12:59;8.00;99.90
7163;DHT22;3623;47.098;15.446;2023-02-15T11:15:34;8.70;99.90
7163;DHT22;3623;47.098;15.446;2023-02-15T11:18:06;9.40;99.90
7163;DHT22;3623;47.098;15.446;2023-02-15T11:20:38;10.10;99.90
7163;DHT22;3623;47.098;15.446;2023-02-15T11:23:13;9.70;99.90
7163;DHT22;3623;47.098;15.446;2023-02-15T11:25:43;9.30;99.90
7163;DHT22;3623;47.098;15.446;2023-02-15T11:28:17;8.70;99.90
7163;DHT22;3623;47.098;15.446;2023-02-15T11:30:50;9.00;99.90
7163;DHT22;3623;47.098;15.446;2023-02-15T11:33:20;9.90;99.90
7163;DHT22;3623;47.098;15.446;2023-02-15T11:35:52;9.90;99.90
7163;DHT22;3623;47.098;15.446;2023-02-15T11:38:22;10.50;99.90
7163;DHT22;3623;47.098;15.446;2023-02-15T11:40:54;10.60;99.90
7163;DHT22;3623;47.098;15.446;2023-02-15T11:43:26;11.10;99.90
7163;DHT22;3623;47.098;15.446;2023-02-15T11:45:56;11.20;99.90
7163;DHT22;3623;47.098;15.446;2023-02-15T11:48:23;11.50;99.90
7163;DHT22;3623;47.098;15.446;2023-02-15T11:50:51;11.70;99.90
7163;DHT22;3623;47.098;15.446;2023-02-15T11:53:20;11.80;99.90
7163;DHT22;3623;47.098;15.446;2023-02-15T11:55:50;11.50;99.90
7163;DHT22;3623;47.098;15.446;2023-02-15T11:58:25;11.00;99.90
7163;DHT22;3623;47.098;15.446;2023-02-15T12:01:00;11.70;99.90
7163;DHT22;3623;47.098;15.446;2023-02-15T12:03:33;11.80;99.90
7163;DHT22;3623;47.098;15.446;2023-02-15T12:06:04;11.80;99.90
7163;DHT22;3623;47.098;15.446;2023-02-15T12:08:37;12.50;99.90
7163;DHT22;3623;47.098;15.446;2023-02-15T12:11:08;12.20;99.90
7163;DHT22;3623;47.098;15.446;2023-02-15T12:13:54;12.40;99.90
7163;DHT22;3623;47.098;15.446;2023-02-15T12:16:23;12.50;99.90
7163;DHT22;3623;47.098;15.446;2023-02-15T12:18:52;12.90;99.90
7163;DHT22;3623;47.098;15.446;2023-02-15T12:21:26;13.40;99.90
7163;DHT22;3623;47.098;15.446;2023-02-15T12:23:56;14.10;99.90
7163;DHT22;3623;47.098;15.446;2023-02-15T12:26:25;14.10;99.90
7163;DHT22;3623;47.098;15.446;2023-02-15T12:28:53;13.60;99.90
7163;DHT22;3623;47.098;15.446;2023-02-15T12:31:27;13.00;99.90
7163;DHT22;3623;47.098;15.446;2023-02-15T12:33:57;13.90;99.90
7163;DHT22;3623;47.098;15.446;2023-02-15T12:36:26;13.90;99.90
7163;DHT22;3623;47.098;15.446;2023-02-15T12:39:03;13.90;99.90
7163;DHT22;3623;47.098;15.446;2023-02-15T12:41:31;12.50;99.90
7163;DHT22;3623;47.098;15.446;2023-02-15T12:44:06;13.10;99.90
7163;DHT22;3623;47.098;15.446;2023-02-15T12:46:35;14.20;99.90
7163;DHT22;3623;47.098;15.446;2023-02-15T12:49:07;15.40;99.90
7163;DHT22;3623;47.098;15.446;2023-02-15T12:51:47;15.30;99.90
7163;DHT22;3623;47.098;15.446;2023-02-15T12:54:28;14.90;99.90
7163;DHT22;3623;47.098;15.446;2023-02-15T12:56:56;14.30;99.90
7163;DHT22;3623;47.098;15.446;2023-02-15T12:59:24;14.70;99.90
7163;DHT22;3623;47.098;15.446;2023-02-15T13:01:53;14.10;99.90
7163;DHT22;3623;47.098;15.446;2023-02-15T13:04:25;13.60;99.90
7163;DHT22;3623;47.098;15.446;2023-02-15T13:06:56;13.60;99.90
7163;DHT22;3623;47.098;15.446;2023-02-15T13:09:34;13.80;99.90
7163;DHT22;3623;47.098;15.446;2023-02-15T13:12:17;13.80;99.90
7163;DHT22;3623;47.098;15.446;2023-02-15T13:14:46;14.10;99.90
7163;DHT22;3623;47.098;15.446;2023-02-15T13:17:19;14.10;99.90
7163;DHT22;3623;47.098;15.446;2023-02-15T13:19:52;13.90;99.90
7163;DHT22;3623;47.098;15.446;2023-02-15T13:22:22;14.00;99.90
7163;DHT22;3623;47.098;15.446;2023-02-15T13:24:53;14.40;99.90
7163;DHT22;3623;47.098;15.446;2023-02-15T13:27:23;14.40;99.90
7163;DHT22;3623;47.098;15.446;2023-02-15T13:29:52;14.30;99.90
7163;DHT22;3623;47.098;15.446;2023-02-15T13:32:28;13.10;99.90
7163;DHT22;3623;47.098;15.446;2023-02-15T13:34:58;13.50;99.90
7163;DHT22;3623;47.098;15.446;2023-02-15T13:37:41;13.70;99.90
7163;DHT22;3623;47.098;15.446;2023-02-15T13:40:15;14.60;99.90
7163;DHT22;3623;47.098;15.446;2023-02-15T13:42:49;14.20;99.90
7163;DHT22;3623;47.098;15.446;2023-02-15T13:45:32;13.60;99.90
7163;DHT22;3623;47.098;15.446;2023-02-15T13:48:12;13.20;99.90
7163;DHT22;3623;47.098;15.446;2023-02-15T13:50:53;11.60;99.90
7163;DHT22;3623;47.098;15.446;2023-02-15T13:53:46;9.80;99.90
7163;DHT22;3623;47.098;15.446;2023-02-15T13:56:23;8.90;99.90
7163;DHT22;3623;47.098;15.446;2023-02-15T13:59:12;8.40;99.90
7163;DHT22;3623;47.098;15.446;2023-02-15T14:01:46;8.00;99.90
7163;DHT22;3623;47.098;15.446;2023-02-15T14:04:28;7.70;99.90
7163;DHT22;3623;47.098;15.446;2023-02-15T14:07:08;7.50;99.90
7163;DHT22;3623;47.098;15.446;2023-02-15T14:09:44;7.30;99.90
7163;DHT22;3623;47.098;15.446;2023-02-15T14:12:34;7.00;99.90
7163;DHT22;3623;47.098;15.446;2023-02-15T14:15:20;6.90;99.90
7163;DHT22;3623;47.098;15.446;2023-02-15T14:17:59;6.90;99.90
7163;DHT22;3623;47.098;15.446;2023-02-15T14:20:45;6.70;99.90
7163;DHT22;3623;47.098;15.446;2023-02-15T14:23:26;6.50;99.90
7163;DHT22;3623;47.098;15.446;2023-02-15T14:26:02;6.40;99.90
7163;DHT22;3623;47.098;15.446;2023-02-15T14:28:37;6.40;99.90
7163;DHT22;3623;47.098;15.446;2023-02-15T14:31:11;6.10;99.90
7163;DHT22;3623;47.098;15.446;2023-02-15T14:33:40;6.20;99.90
7163;DHT22;3623;47.098;15.446;2023-02-15T14:36:15;6.20;99.90
7163;DHT22;3623;47.098;15.446;2023-02-15T14:38:55;5.90;99.90
7163;DHT22;3623;47.098;15.446;2023-02-15T14:41:28;5.70;99.90
7163;DHT22;3623;47.098;15.446;2023-02-15T14:44:01;5.60;99.90
7163;DHT22;3623;47.098;15.446;2023-02-15T14:46:34;5.60;99.90
7163;DHT22;3623;47.098;15.446;2023-02-15T14:49:09;5.40;99.90
7163;DHT22;3623;47.098;15.446;2023-02-15T14:51:57;5.50;99.90
7163;DHT22;3623;47.098;15.446;2023-02-15T14:54:57;5.40;99.90
7163;DHT22;3623;47.098;15.446;2023-02-15T14:57:29;5.40;99.90
7163;DHT22;3623;47.098;15.446;2023-02-15T14:59:59;5.20;99.90
7163;DHT22;3623;47.098;15.446;2023-02-15T15:02:30;5.00;99.90
7163;DHT22;3623;47.098;15.446;2023-02-15T15:05:10;5.10;99.90
7163;DHT22;3623;47.098;15.446;2023-02-15T15:07:44;5.00;99.90
7163;DHT22;3623;47.098;15.446;2023-02-15T15:10:34;4.90;99.90
7163;DHT22;3623;47.098;15.446;2023-02-15T15:16:29;5.00;99.90
7163;DHT22;3623;47.098;15.446;2023-02-15T15:18:58;5.00;99.90
7163;DHT22;3623;47.098;15.446;2023-02-15T15:21:53;5.00;99.90
7163;DHT22;3623;47.098;15.446;2023-02-15T15:24:47;5.00;99.90
7163;DHT22;3623;47.098;15.446;2023-02-15T15:27:43;4.90;99.90
7163;DHT22;3623;47.098;15.446;2023-02-15T15:34:06;4.80;99.90
7163;DHT22;3623;47.098;15.446;2023-02-15T15:40:40;4.50;99.90
7163;DHT22;3623;47.098;15.446;2023-02-15T15:43:41;4.50;99.90
7163;DHT22;3623;47.098;15.446;2023-02-15T15:49:13;4.20;99.90
7163;DHT22;3623;47.098;15.446;2023-02-15T15:51:44;4.10;99.90
7163;DHT22;3623;47.098;15.446;2023-02-15T15:54:15;4.10;99.90
7163;DHT22;3623;47.098;15.446;2023-02-15T15:56:47;4.20;99.90
7163;DHT22;3623;47.098;15.446;2023-02-15T15:59:19;4.10;99.90
7163;DHT22;3623;47.098;15.446;2023-02-15T16:01:48;4.10;99.90
7163;DHT22;3623;47.098;15.446;2023-02-15T16:04:23;4.00;99.90
7163;DHT22;3623;47.098;15.446;2023-02-15T16:06:51;3.80;99.90
7163;DHT22;3623;47.098;15.446;2023-02-15T16:09:20;3.80;99.90
7163;DHT22;3623;47.098;15.446;2023-02-15T16:11:51;3.70;99.90
7163;DHT22;3623;47.098;15.446;2023-02-15T16:14:26;3.60;99.90
7163;DHT22;3623;47.098;15.446;2023-02-15T16:16:56;3.50;99.90
7163;DHT22;3623;47.098;15.446;2023-02-15T16:19:28;3.40;99.90
7163;DHT22;3623;47.098;15.446;2023-02-15T16:21:59;3.30;99.90
7163;DHT22;3623;47.098;15.446;2023-02-15T16:24:43;3.10;99.90
7163;DHT22;3623;47.098;15.446;2023-02-15T16:27:27;3.20;99.90
7163;DHT22;3623;47.098;15.446;2023-02-15T16:29:55;3.10;99.90
7163;DHT22;3623;47.098;15.446;2023-02-15T16:32:24;3.10;99.90
7163;DHT22;3623;47.098;15.446;2023-02-15T16:34:53;2.90;99.90
7163;DHT22;3623;47.098;15.446;2023-02-15T16:37:22;3.00;99.90
7163;DHT22;3623;47.098;15.446;2023-02-15T16:39:51;2.80;99.90
7163;DHT22;3623;47.098;15.446;2023-02-15T16:42:20;2.80;99.90
7163;DHT22;3623;47.098;15.446;2023-02-15T16:44:51;2.30;99.90
7163;DHT22;3623;47.098;15.446;2023-02-15T16:47:22;2.80;99.90
7163;DHT22;3623;47.098;15.446;2023-02-15T16:49:52;2.70;99.90